createdAt,value
2022-11-03T00:01:46.155Z,1.70
2022-11-03T00:04:17.191Z,1.73
2022-11-03T00:06:46.032Z,1.20
2022-11-03T00:09:16.098Z,1.27
2022-11-03T00:11:44.757Z,3.75
2022-11-03T00:14:12.871Z,4.03
2022-11-03T00:16:40.595Z,1.05
2022-11-03T00:19:09.881Z,1.25
2022-11-03T00:21:37.833Z,0.50
2022-11-03T00:24:05.524Z,0.57
2022-11-03T00:26:34.666Z,2.78
2022-11-03T00:29:12.705Z,0.30
2022-11-03T00:31:41.746Z,1.92
2022-11-03T00:34:09.085Z,0.50
2022-11-03T00:36:44.275Z,0.85
2022-11-03T00:39:11.961Z,1.02
2022-11-03T00:41:39.448Z,2.15
2022-11-03T00:44:06.580Z,0.90
2022-11-03T00:46:36.370Z,0.50
2022-11-03T00:49:05.140Z,1.17
2022-11-03T00:51:34.357Z,0.68
2022-11-03T00:54:02.676Z,0.85
2022-11-03T00:56:35.043Z,0.98
2022-11-03T00:59:02.927Z,1.80
2022-11-03T01:01:47.751Z,1.70
2022-11-03T01:04:35.555Z,2.87
2022-11-03T01:07:04.733Z,4.65
2022-11-03T01:09:39.277Z,2.33
2022-11-03T01:12:16.956Z,3.53
2022-11-03T01:14:49.764Z,2.78
2022-11-03T01:17:22.707Z,4.62
2022-11-03T01:19:50.069Z,2.45
2022-11-03T01:22:18.285Z,3.28
2022-11-03T01:24:45.771Z,5.47
2022-11-03T01:27:16.646Z,5.82
2022-11-03T01:29:43.803Z,6.90
2022-11-03T01:32:11.067Z,4.50
2022-11-03T01:34:39.615Z,8.73
2022-11-03T01:37:06.976Z,7.05
2022-11-03T01:39:33.931Z,5.78
2022-11-03T01:42:01.416Z,7.72
2022-11-03T01:44:37.740Z,5.22
2022-11-03T01:47:27.040Z,7.10
2022-11-03T01:50:03.393Z,6.85
2022-11-03T01:52:43.777Z,7.95
2022-11-03T01:55:18.475Z,6.87
2022-11-03T01:57:53.625Z,5.35
2022-11-03T02:00:20.979Z,6.97
2022-11-03T02:02:48.365Z,9.32
2022-11-03T02:05:17.089Z,9.15
2022-11-03T02:07:53.364Z,9.50
2022-11-03T02:10:20.707Z,6.47
2022-11-03T02:12:48.343Z,6.87
2022-11-03T02:15:17.117Z,9.18
2022-11-03T02:17:46.688Z,8.77
2022-11-03T02:20:21.101Z,9.52
2022-11-03T02:22:53.735Z,5.55
2022-11-03T02:25:51.034Z,6.37
2022-11-03T02:28:28.100Z,6.95
2022-11-03T02:31:13.801Z,9.63
2022-11-03T02:33:55.807Z,8.18
2022-11-03T02:36:22.655Z,5.18
2022-11-03T02:39:03.381Z,9.48
2022-11-03T02:41:34.245Z,7.22
2022-11-03T02:44:03.495Z,3.15
2022-11-03T02:46:32.879Z,10.20
2022-11-03T02:48:59.753Z,8.57
2022-11-03T02:51:26.639Z,11.12
2022-11-03T02:54:18.492Z,5.62
2022-11-03T02:57:01.694Z,10.32
2022-11-03T02:59:37.257Z,4.53
2022-11-03T03:02:08.903Z,7.75
2022-11-03T03:04:40.792Z,4.80
2022-11-03T03:07:24.985Z,9.18
2022-11-03T03:10:05.242Z,5.95
2022-11-03T03:12:36.949Z,3.30
2022-11-03T03:15:05.985Z,6.75
2022-11-03T03:17:44.503Z,4.18
2022-11-03T03:20:20.304Z,6.65
2022-11-03T03:23:05.107Z,7.05
2022-11-03T03:25:41.096Z,5.03
2022-11-03T03:28:16.976Z,6.32
2022-11-03T03:30:46.417Z,3.37
2022-11-03T03:33:15.042Z,5.70
2022-11-03T03:35:45.876Z,5.70
2022-11-03T03:38:37.108Z,10.43
2022-11-03T03:41:10.401Z,6.20
2022-11-03T03:43:38.105Z,4.95
2022-11-03T03:46:10.355Z,4.90
2022-11-03T03:48:37.693Z,5.90
2022-11-03T03:51:06.561Z,6.05
2022-11-03T03:53:33.472Z,5.22
2022-11-03T03:56:00.485Z,6.50
2022-11-03T03:58:27.367Z,4.87
2022-11-03T04:00:54.389Z,9.05
2022-11-03T04:03:24.324Z,4.82
2022-11-03T04:05:53.437Z,6.40
2022-11-03T04:08:20.478Z,6.20
2022-11-03T04:11:05.918Z,4.62
2022-11-03T04:14:12.073Z,4.60
2022-11-03T04:16:57.560Z,5.95
2022-11-03T04:19:43.313Z,2.67
2022-11-03T04:22:19.293Z,4.97
2022-11-03T04:24:51.188Z,5.22
2022-11-03T04:27:28.788Z,4.80
2022-11-03T04:30:16.596Z,4.95
2022-11-03T04:32:45.380Z,4.87
2022-11-03T04:35:22.228Z,3.28
2022-11-03T04:37:59.105Z,5.18
2022-11-03T04:40:26.101Z,4.62
2022-11-03T04:42:53.560Z,6.00
2022-11-03T04:45:25.803Z,5.47
2022-11-03T04:47:54.086Z,1.37
2022-11-03T04:50:23.148Z,7.07
2022-11-03T04:52:54.248Z,5.15
2022-11-03T04:55:21.253Z,6.25
2022-11-03T04:57:50.717Z,5.25
2022-11-03T05:00:19.711Z,6.53
2022-11-03T05:02:51.524Z,3.35
2022-11-03T05:05:24.217Z,5.15
2022-11-03T05:07:53.753Z,5.50
2022-11-03T05:10:25.662Z,3.35
2022-11-03T05:12:54.809Z,3.33
2022-11-03T05:15:30.250Z,3.33
2022-11-03T05:17:58.763Z,5.45
2022-11-03T05:20:36.765Z,4.82
2022-11-03T05:23:05.748Z,3.25
2022-11-03T05:25:44.642Z,5.20
2022-11-03T05:28:23.753Z,2.08
2022-11-03T05:30:51.649Z,3.67
2022-11-03T05:33:24.422Z,2.42
2022-11-03T05:35:51.416Z,1.77
2022-11-03T05:38:20.988Z,2.37
2022-11-03T05:40:51.799Z,3.22
2022-11-03T05:43:19.906Z,4.75
2022-11-03T05:45:50.453Z,1.77
2022-11-03T05:48:30.784Z,3.83
2022-11-03T05:51:00.401Z,2.33
2022-11-03T05:53:39.231Z,1.37
2022-11-03T05:56:07.239Z,2.37
2022-11-03T05:58:42.321Z,2.85
2022-11-03T06:01:31.564Z,3.58
2022-11-03T06:04:22.654Z,3.40
2022-11-03T06:06:54.178Z,1.37
2022-11-03T06:09:23.480Z,5.53
2022-11-03T06:11:53.667Z,3.03
2022-11-03T06:14:25.921Z,3.67
2022-11-03T06:17:07.631Z,2.37
2022-11-03T06:19:43.883Z,2.72
2022-11-03T06:22:24.673Z,4.22
2022-11-03T06:25:00.961Z,0.70
2022-11-03T06:27:31.985Z,2.58
2022-11-03T06:30:16.431Z,3.97
2022-11-03T06:32:43.641Z,2.87
2022-11-03T06:35:13.164Z,4.90
2022-11-03T06:37:41.050Z,2.92
2022-11-03T06:40:10.769Z,4.28
2022-11-03T06:42:41.676Z,3.17
2022-11-03T06:45:24.374Z,2.87
2022-11-03T06:47:53.233Z,2.55
2022-11-03T06:50:32.133Z,4.97
2022-11-03T06:53:02.950Z,10.18
2022-11-03T06:55:31.708Z,4.12
2022-11-03T06:58:30.335Z,3.75
2022-11-03T07:01:03.504Z,3.62
2022-11-03T07:03:37.882Z,3.58
2022-11-03T07:06:10.734Z,2.22
2022-11-03T07:08:39.748Z,5.28
2022-11-03T07:11:21.332Z,3.03
2022-11-03T07:13:50.586Z,3.50
2022-11-03T07:16:37.500Z,3.80
2022-11-03T07:19:10.370Z,2.55
2022-11-03T07:21:44.052Z,3.62
2022-11-03T07:24:19.642Z,3.83
2022-11-03T07:26:46.685Z,2.58
2022-11-03T07:29:20.136Z,2.85
2022-11-03T07:31:47.407Z,3.15
2022-11-03T07:34:20.862Z,3.10
2022-11-03T07:36:52.828Z,3.95
2022-11-03T07:39:22.449Z,2.55
2022-11-03T07:41:50.294Z,4.10
2022-11-03T07:44:23.118Z,4.87
2022-11-03T07:46:51.220Z,2.47
2022-11-03T07:49:29.353Z,4.20
2022-11-03T07:52:00.126Z,2.45
2022-11-03T07:54:34.391Z,1.40
2022-11-03T07:57:06.325Z,2.10
2022-11-03T07:59:35.325Z,2.10
2022-11-03T08:02:03.276Z,2.22
2022-11-03T08:04:34.320Z,3.37
2022-11-03T08:07:01.250Z,6.62
2022-11-03T08:09:28.165Z,2.47
2022-11-03T08:11:55.046Z,2.90
2022-11-03T08:14:21.967Z,1.48
2022-11-03T08:16:49.350Z,5.45
2022-11-03T08:19:16.252Z,4.12
2022-11-03T08:21:43.130Z,1.52
2022-11-03T08:24:10.038Z,2.65
2022-11-03T08:26:37.176Z,1.02
2022-11-03T08:29:04.126Z,0.65
2022-11-03T08:31:31.041Z,2.72
2022-11-03T08:33:58.074Z,3.62
2022-11-03T08:36:25.002Z,0.73
2022-11-03T08:38:51.934Z,3.97
2022-11-03T08:41:18.881Z,2.17
2022-11-03T08:43:45.824Z,1.77
2022-11-03T08:46:17.795Z,3.83
2022-11-03T08:48:45.822Z,2.50
2022-11-03T08:51:14.181Z,0.90
2022-11-03T08:53:46.468Z,1.87
2022-11-03T08:56:15.003Z,1.00
2022-11-03T08:58:43.642Z,0.52
2022-11-03T09:01:10.555Z,2.35
2022-11-03T09:03:37.615Z,1.23
2022-11-03T09:06:04.961Z,1.98
2022-11-03T09:11:18.741Z,1.35
2022-11-03T09:13:45.630Z,2.25
2022-11-03T09:16:12.496Z,1.45
2022-11-03T09:18:39.377Z,0.70
2022-11-03T09:21:06.537Z,2.15
2022-11-03T09:23:33.496Z,0.85
2022-11-03T09:26:00.365Z,2.25
2022-11-03T09:28:27.255Z,0.65
2022-11-03T09:30:54.813Z,3.28
2022-11-03T09:33:21.678Z,0.82
2022-11-03T09:35:48.621Z,0.85
2022-11-03T09:38:15.518Z,0.60
2022-11-03T09:40:42.466Z,0.25
2022-11-03T09:43:10.001Z,0.40
2022-11-03T09:45:38.794Z,0.20
2022-11-03T09:48:10.033Z,0.57
2022-11-03T09:50:37.752Z,0.73
2022-11-03T09:53:05.167Z,0.45
2022-11-03T09:55:33.545Z,0.60
2022-11-03T09:58:02.161Z,0.75
2022-11-03T10:00:29.229Z,0.50
2022-11-03T10:02:56.498Z,0.35
2022-11-03T10:05:26.567Z,0.60
2022-11-03T10:08:00.957Z,0.60
2022-11-03T10:10:28.044Z,0.35
2022-11-03T10:12:55.333Z,0.65
2022-11-03T10:15:23.919Z,1.02
2022-11-03T10:17:51.757Z,0.93
2022-11-03T10:20:21.928Z,0.03
2022-11-03T10:22:53.482Z,0.57
2022-11-03T10:25:38.755Z,0.35
2022-11-03T10:28:14.944Z,0.37
2022-11-03T10:31:14.293Z,0.37
2022-11-03T10:33:52.205Z,1.70
2022-11-03T10:36:19.260Z,0.17
2022-11-03T10:38:47.954Z,0.62
2022-11-03T10:41:23.754Z,0.52
2022-11-03T10:44:12.304Z,1.00
2022-11-03T10:46:56.057Z,0.30
2022-11-03T10:49:23.196Z,1.15
2022-11-03T10:51:53.042Z,0.90
2022-11-03T10:54:24.291Z,0.88
2022-11-03T10:56:52.648Z,1.55
2022-11-03T10:59:22.708Z,0.20
2022-11-03T11:01:49.787Z,0.98
2022-11-03T11:04:18.893Z,0.10
2022-11-03T11:06:46.670Z,0.80
2022-11-03T11:09:17.504Z,0.98
2022-11-03T11:12:07.486Z,1.98
2022-11-03T11:14:50.974Z,0.60
2022-11-03T11:17:42.514Z,3.12
2022-11-03T11:20:31.462Z,1.45
2022-11-03T11:23:27.037Z,0.82
2022-11-03T11:26:09.451Z,0.98
2022-11-03T11:28:37.762Z,0.55
2022-11-03T11:31:27.845Z,1.77
2022-11-03T11:34:09.519Z,0.60
2022-11-03T11:36:40.753Z,0.35
2022-11-03T11:39:12.867Z,0.25
2022-11-03T11:42:15.642Z,0.52
2022-11-03T11:44:53.365Z,0.88
2022-11-03T11:47:40.581Z,0.20
2022-11-03T11:50:07.495Z,0.20
2022-11-03T11:52:43.036Z,0.43
2022-11-03T11:55:40.196Z,0.85
2022-11-03T11:58:24.494Z,0.68
2022-11-03T12:00:57.861Z,0.82
2022-11-03T12:03:52.123Z,2.08
2022-11-03T12:06:33.341Z,0.47
2022-11-03T12:09:17.186Z,1.40
2022-11-03T12:11:50.286Z,0.30
2022-11-03T12:14:23.934Z,1.10
2022-11-03T12:16:51.312Z,0.88
2022-11-03T12:19:41.025Z,1.12
2022-11-03T12:22:28.135Z,0.93
2022-11-03T12:25:06.988Z,1.10
2022-11-03T12:27:36.509Z,0.77
2022-11-03T12:30:13.807Z,1.37
2022-11-03T12:32:40.962Z,1.80
2022-11-03T12:35:09.810Z,1.67
2022-11-03T12:37:37.770Z,0.65
2022-11-03T12:40:05.844Z,1.52
2022-11-03T12:42:32.810Z,0.68
2022-11-03T12:44:59.885Z,0.50
2022-11-03T12:47:26.819Z,0.93
2022-11-03T12:49:53.878Z,1.45
2022-11-03T12:52:20.838Z,1.10
2022-11-03T12:54:47.962Z,0.50
2022-11-03T12:57:14.969Z,0.55
2022-11-03T12:59:41.939Z,0.77
2022-11-03T13:02:11.196Z,1.30
2022-11-03T13:04:39.077Z,2.05
2022-11-03T13:07:06.527Z,1.87
2022-11-03T13:09:35.730Z,0.90
2022-11-03T13:12:21.261Z,0.50
2022-11-03T13:14:48.802Z,0.93
2022-11-03T13:17:15.803Z,1.05
2022-11-03T13:19:42.845Z,0.77
2022-11-03T13:22:09.870Z,1.12
2022-11-03T13:24:36.833Z,0.43
2022-11-03T13:27:03.896Z,0.80
2022-11-03T13:29:35.185Z,1.27
2022-11-03T13:32:04.193Z,1.05
2022-11-03T13:34:31.388Z,0.73
2022-11-03T13:36:58.863Z,1.30
2022-11-03T13:39:25.876Z,0.93
2022-11-03T13:41:52.801Z,1.75
2022-11-03T13:44:19.734Z,1.95
2022-11-03T13:46:46.846Z,1.33
2022-11-03T13:52:00.787Z,1.52
2022-11-03T14:00:03.767Z,0.88
2022-11-03T14:05:19.651Z,1.50
2022-11-03T14:07:46.610Z,0.95
2022-11-03T14:10:13.505Z,1.05
2022-11-03T14:12:40.496Z,1.15
2022-11-03T14:15:09.773Z,1.08
2022-11-03T14:17:38.477Z,1.05
2022-11-03T14:20:06.949Z,0.93
2022-11-03T14:22:33.925Z,0.52
2022-11-03T14:25:01.453Z,0.75
2022-11-03T14:27:29.037Z,1.75
2022-11-03T14:29:56.310Z,0.90
2022-11-03T14:32:23.231Z,0.85
2022-11-03T14:34:50.248Z,1.15
2022-11-03T14:37:17.386Z,0.88
2022-11-03T14:39:44.597Z,0.62
2022-11-03T14:42:17.069Z,1.00
2022-11-03T14:44:46.070Z,2.33
2022-11-03T14:47:18.552Z,1.67
2022-11-03T14:49:46.663Z,2.70
2022-11-03T14:52:14.520Z,1.92
2022-11-03T14:54:47.274Z,1.58
2022-11-03T14:57:14.372Z,1.35
2022-11-03T14:59:46.723Z,2.12
2022-11-03T15:02:16.439Z,1.00
2022-11-03T15:04:43.568Z,2.03
2022-11-03T15:07:10.795Z,1.87
2022-11-03T15:09:39.560Z,0.40
2022-11-03T15:12:06.875Z,1.80
2022-11-03T15:14:41.541Z,0.95
2022-11-03T15:17:11.709Z,1.25
2022-11-03T15:19:40.583Z,0.82
2022-11-03T15:22:07.730Z,0.70
2022-11-03T15:27:21.963Z,0.30
2022-11-03T15:29:48.954Z,0.90
2022-11-03T15:32:15.973Z,1.85
2022-11-03T15:34:42.870Z,1.37
2022-11-03T15:37:09.822Z,0.68
2022-11-03T15:39:36.787Z,1.37
2022-11-03T15:42:03.926Z,1.08
2022-11-03T15:44:30.926Z,0.82
2022-11-03T15:46:57.881Z,0.65
2022-11-03T15:49:24.898Z,1.83
2022-11-03T15:51:51.991Z,1.10
2022-11-03T15:54:18.963Z,0.85
2022-11-03T15:56:46.068Z,1.27
2022-11-03T15:59:13.082Z,0.80
2022-11-03T16:01:40.066Z,1.23
2022-11-03T16:04:07.089Z,0.98
2022-11-03T16:07:01.593Z,3.15
2022-11-03T16:09:21.057Z,1.55
2022-11-03T16:11:47.959Z,1.67
2022-11-03T16:14:15.249Z,0.90
2022-11-03T16:16:42.150Z,1.48
2022-11-03T16:19:10.434Z,1.85
2022-11-03T16:21:37.858Z,1.48
2022-11-03T16:24:05.418Z,0.45
2022-11-03T16:26:32.314Z,0.45
2022-11-03T16:28:59.538Z,0.75
2022-11-03T16:31:27.044Z,4.10
2022-11-03T16:33:53.942Z,1.25
2022-11-03T16:36:20.918Z,1.92
2022-11-03T16:38:47.768Z,1.62
2022-11-03T16:41:14.869Z,2.35
2022-11-03T16:43:41.730Z,0.57
2022-11-03T16:46:08.638Z,2.00
2022-11-03T16:48:35.636Z,1.92
2022-11-03T16:51:02.506Z,0.95
2022-11-03T16:53:29.400Z,0.73
2022-11-03T16:55:56.450Z,1.02
2022-11-03T16:58:26.201Z,1.00
2022-11-03T17:00:53.183Z,1.05
2022-11-03T17:03:20.231Z,0.73
2022-11-03T17:05:47.159Z,0.30
2022-11-03T17:08:38.999Z,1.52
2022-11-03T17:11:01.112Z,1.55
2022-11-03T17:13:28.642Z,1.30
2022-11-03T17:15:55.572Z,2.25
2022-11-03T17:18:22.502Z,0.95
2022-11-03T17:20:49.561Z,0.70
2022-11-03T17:23:16.465Z,1.95
2022-11-03T17:25:43.438Z,1.80
2022-11-03T17:28:12.182Z,0.32
2022-11-03T17:30:39.959Z,0.68
2022-11-03T17:33:14.402Z,0.98
2022-11-03T17:35:46.270Z,3.17
2022-11-03T17:38:16.331Z,2.37
2022-11-03T17:40:45.884Z,1.75
2022-11-03T17:43:23.024Z,0.30
2022-11-03T17:45:50.673Z,2.15
2022-11-03T17:48:17.629Z,1.45
2022-11-03T17:50:50.544Z,1.08
2022-11-03T17:53:31.119Z,2.10
2022-11-03T17:56:28.454Z,2.50
2022-11-03T17:58:47.534Z,0.30
2022-11-03T18:01:22.096Z,1.67
2022-11-03T18:03:49.306Z,1.12
2022-11-03T18:06:19.330Z,1.17
2022-11-03T18:08:47.501Z,2.05
2022-11-03T18:11:44.242Z,0.85
2022-11-03T18:14:11.298Z,2.78
2022-11-03T18:16:38.497Z,5.97
2022-11-03T18:19:06.200Z,5.93
2022-11-03T18:21:33.166Z,3.22
2022-11-03T18:24:00.562Z,4.45
2022-11-03T18:26:27.917Z,2.50
2022-11-03T18:28:55.127Z,2.60
2022-11-03T18:31:33.901Z,1.48
2022-11-03T18:34:06.734Z,0.57
2022-11-03T18:36:34.339Z,1.90
2022-11-03T18:39:02.878Z,1.90
2022-11-03T18:41:36.708Z,0.77
2022-11-03T18:44:20.750Z,2.33
2022-11-03T18:46:49.197Z,0.95
2022-11-03T18:49:16.310Z,3.17
2022-11-03T18:52:11.869Z,2.70
2022-11-03T18:54:42.324Z,2.80
2022-11-03T18:57:12.281Z,3.80
2022-11-03T18:59:43.664Z,4.93
2022-11-03T19:02:20.325Z,1.12
2022-11-03T19:04:47.777Z,1.42
2022-11-03T19:07:22.182Z,3.70
2022-11-03T19:09:49.253Z,1.60
2022-11-03T19:12:16.513Z,4.20
2022-11-03T19:14:45.418Z,3.05
2022-11-03T19:17:23.557Z,2.70
2022-11-03T19:19:51.652Z,3.78
2022-11-03T19:22:20.688Z,1.27
2022-11-03T19:24:48.835Z,2.12
2022-11-03T19:27:18.089Z,2.30
2022-11-03T19:29:47.170Z,4.05
2022-11-03T19:32:31.285Z,2.65
2022-11-03T19:35:06.880Z,2.03
2022-11-03T19:37:36.054Z,1.00
2022-11-03T19:40:08.851Z,2.97
2022-11-03T19:42:39.729Z,3.00
2022-11-03T19:45:10.962Z,2.40
2022-11-03T19:50:46.822Z,1.70
2022-11-03T19:53:26.747Z,3.90
2022-11-03T19:55:54.946Z,3.85
2022-11-03T19:58:24.449Z,2.20
2022-11-03T20:00:52.286Z,3.50
2022-11-03T20:03:19.915Z,5.40
2022-11-03T20:05:49.808Z,6.25
2022-11-03T20:08:23.297Z,2.17
2022-11-03T20:10:50.628Z,0.88
2022-11-03T20:13:24.695Z,2.40
2022-11-03T20:15:57.274Z,3.35
2022-11-03T20:18:26.262Z,1.80
2022-11-03T20:20:53.237Z,2.15
2022-11-03T20:23:28.465Z,1.12
2022-11-03T20:25:55.912Z,1.87
2022-11-03T20:28:27.552Z,2.10
2022-11-03T20:30:55.788Z,1.08
2022-11-03T20:33:24.680Z,2.33
2022-11-03T20:35:53.617Z,0.90
2022-11-03T20:38:22.865Z,2.67
2022-11-03T20:40:55.771Z,4.65
2022-11-03T20:43:29.211Z,1.90
2022-11-03T20:45:56.273Z,1.35
2022-11-03T20:48:24.501Z,3.40
2022-11-03T20:50:52.390Z,1.05
2022-11-03T20:53:22.340Z,0.98
2022-11-03T20:55:49.781Z,0.75
2022-11-03T20:58:18.084Z,0.98
2022-11-03T21:00:47.238Z,2.87
2022-11-03T21:03:38.088Z,0.70
2022-11-03T21:06:17.989Z,3.22
2022-11-03T21:08:46.561Z,0.62
2022-11-03T21:11:24.927Z,1.35
2022-11-03T21:13:53.206Z,1.60
2022-11-03T21:16:39.005Z,1.62
2022-11-03T21:19:51.241Z,2.37
2022-11-03T21:25:19.277Z,2.25
2022-11-03T21:27:46.558Z,0.70
2022-11-03T21:30:15.608Z,1.25
2022-11-03T21:32:43.097Z,1.55
2022-11-03T21:35:15.163Z,2.85
2022-11-03T21:37:42.119Z,3.10
2022-11-03T21:40:10.391Z,0.70
2022-11-03T21:42:56.249Z,5.12
2022-11-03T21:45:23.182Z,0.90
2022-11-03T21:48:13.072Z,1.60
2022-11-03T21:50:41.081Z,1.05
2022-11-03T21:53:08.410Z,1.15
2022-11-03T21:55:35.902Z,0.93
2022-11-03T21:58:03.232Z,3.53
2022-11-03T22:00:32.082Z,0.88
2022-11-03T22:03:00.122Z,1.50
2022-11-03T22:05:27.560Z,1.58
2022-11-03T22:07:54.447Z,2.37
2022-11-03T22:10:21.341Z,1.48
2022-11-03T22:12:48.239Z,2.62
2022-11-03T22:15:34.006Z,0.98
2022-11-03T22:18:01.906Z,2.08
2022-11-03T22:20:47.424Z,1.65
2022-11-03T22:23:34.226Z,1.73
2022-11-03T22:26:20.480Z,2.20
2022-11-03T22:29:07.313Z,0.98
2022-11-03T22:31:43.658Z,0.77
2022-11-03T22:34:29.518Z,1.08
2022-11-03T22:36:56.586Z,2.70
2022-11-03T22:39:42.356Z,0.73
2022-11-03T22:42:31.055Z,1.65
2022-11-03T22:45:16.415Z,3.37
2022-11-03T22:47:43.416Z,1.85
2022-11-03T22:50:10.487Z,1.00
2022-11-03T22:52:37.421Z,2.45
2022-11-03T22:55:04.951Z,1.35
2022-11-03T22:57:31.821Z,1.15
2022-11-03T22:59:58.717Z,0.73
2022-11-03T23:02:25.761Z,1.33
2022-11-03T23:04:52.697Z,2.70
2022-11-03T23:07:19.614Z,0.82
2022-11-03T23:09:46.503Z,0.77
2022-11-03T23:12:13.402Z,1.45
2022-11-03T23:14:59.025Z,3.35
2022-11-03T23:17:45.884Z,0.88
2022-11-03T23:20:31.445Z,0.70
2022-11-03T23:22:58.332Z,2.97
2022-11-03T23:25:25.203Z,0.60
2022-11-03T23:27:53.250Z,3.10
2022-11-03T23:30:20.139Z,2.65
2022-11-03T23:32:47.011Z,4.60
2022-11-03T23:35:14.693Z,6.35
2022-11-03T23:37:41.659Z,1.35
2022-11-03T23:40:09.120Z,1.58
2022-11-03T23:42:36.006Z,4.72
2022-11-03T23:45:21.767Z,1.87
2022-11-03T23:48:07.518Z,0.50
2022-11-03T23:50:34.681Z,1.20
2022-11-03T23:53:01.537Z,2.37
2022-11-03T23:55:48.399Z,1.55
2022-11-03T23:58:21.698Z,7.93
